createdAt,value
2018-02-03T00:02:13.367Z,5.47
2018-02-03T00:04:42.434Z,5.10
2018-02-03T00:07:11.080Z,5.73
2018-02-03T00:09:39.388Z,6.57
2018-02-03T00:12:08.184Z,5.50
2018-02-03T00:14:36.479Z,5.17
2018-02-03T00:17:05.124Z,6.10
2018-02-03T00:19:33.515Z,5.90
2018-02-03T00:22:01.843Z,5.73
2018-02-03T00:24:30.148Z,5.80
2018-02-03T00:26:58.475Z,5.07
2018-02-03T00:29:26.559Z,5.70
2018-02-03T00:31:54.994Z,5.83
2018-02-03T00:34:23.643Z,6.50
2018-02-03T00:36:51.951Z,5.93
2018-02-03T00:39:20.314Z,5.40
2018-02-03T00:41:48.688Z,5.60
2018-02-03T00:44:17.000Z,6.22
2018-02-03T00:46:45.311Z,5.73
2018-02-03T00:49:13.646Z,5.80
2018-02-03T00:51:41.951Z,6.10
2018-02-03T00:54:11.630Z,5.95
2018-02-03T00:56:39.939Z,5.37
2018-02-03T00:59:09.007Z,4.70
2018-02-03T01:01:37.527Z,5.87
2018-02-03T01:04:06.955Z,5.28
2018-02-03T01:06:35.266Z,6.17
2018-02-03T01:09:03.567Z,4.60
2018-02-03T01:11:32.563Z,5.57
2018-02-03T01:14:00.863Z,5.00
2018-02-03T01:16:29.167Z,5.47
2018-02-03T01:18:58.281Z,4.70
2018-02-03T01:21:26.585Z,6.03
2018-02-03T01:23:54.899Z,5.78
2018-02-03T01:26:23.667Z,4.53
2018-02-03T01:28:52.032Z,5.93
2018-02-03T01:31:20.341Z,5.97
2018-02-03T01:33:49.118Z,5.75
2018-02-03T01:36:17.424Z,5.65
2018-02-03T01:38:45.748Z,6.03
2018-02-03T01:41:14.168Z,6.18
2018-02-03T01:43:43.352Z,7.80
2018-02-03T01:46:11.713Z,7.30
2018-02-03T01:51:14.025Z,5.35
2018-02-03T01:53:42.851Z,6.20
2018-02-03T01:56:11.244Z,6.60
2018-02-03T01:58:39.555Z,6.63
2018-02-03T02:01:08.646Z,5.87
2018-02-03T02:03:38.339Z,6.70
2018-02-03T02:06:06.671Z,6.00
2018-02-03T02:08:35.381Z,5.75
2018-02-03T02:11:04.008Z,5.30
2018-02-03T02:13:32.327Z,5.20
2018-02-03T02:16:00.640Z,5.10
2018-02-03T02:18:29.554Z,5.90
2018-02-03T02:20:57.862Z,5.73
2018-02-03T02:23:26.176Z,4.70
2018-02-03T02:25:55.243Z,4.50
2018-02-03T02:28:23.648Z,5.17
2018-02-03T02:30:51.956Z,4.87
2018-02-03T02:33:20.835Z,5.17
2018-02-03T02:35:49.285Z,4.80
2018-02-03T02:38:17.615Z,5.22
2018-02-03T02:40:45.951Z,5.30
2018-02-03T02:43:14.260Z,5.32
2018-02-03T02:45:43.351Z,5.55
2018-02-03T02:48:12.456Z,5.53
2018-02-03T02:50:41.535Z,5.20
2018-02-03T02:53:09.884Z,5.07
2018-02-03T02:55:38.230Z,5.37
2018-02-03T02:58:06.551Z,5.90
2018-02-03T03:00:35.159Z,5.35
2018-02-03T03:03:03.474Z,5.12
2018-02-03T03:05:31.855Z,5.20
2018-02-03T03:08:00.481Z,5.60
2018-02-03T03:10:28.787Z,5.22
2018-02-03T03:12:57.859Z,5.72
2018-02-03T03:15:26.240Z,5.50
2018-02-03T03:17:54.730Z,5.80
2018-02-03T03:20:23.067Z,5.37
2018-02-03T03:22:52.102Z,5.37
2018-02-03T03:25:20.447Z,4.62
2018-02-03T03:27:48.760Z,5.68
2018-02-03T03:30:17.936Z,6.00
2018-02-03T03:32:46.270Z,5.70
2018-02-03T03:35:15.333Z,6.00
2018-02-03T03:37:43.631Z,6.32
2018-02-03T03:40:11.935Z,5.77
2018-02-03T03:42:40.558Z,5.00
2018-02-03T03:45:09.141Z,6.20
2018-02-03T03:47:37.475Z,5.50
2018-02-03T03:50:05.841Z,5.78
2018-02-03T03:52:34.144Z,4.83
2018-02-03T03:55:02.453Z,4.70
2018-02-03T03:57:31.067Z,5.27
2018-02-03T03:59:59.375Z,5.30
2018-02-03T04:02:27.672Z,5.57
2018-02-03T04:04:56.028Z,5.20
2018-02-03T04:07:24.343Z,4.70
2018-02-03T04:09:52.651Z,5.43
2018-02-03T04:12:20.994Z,4.90
2018-02-03T04:14:49.307Z,5.30
2018-02-03T04:17:17.619Z,5.30
2018-02-03T04:19:45.948Z,5.23
2018-02-03T04:22:14.300Z,5.57
2018-02-03T04:24:42.619Z,5.40
2018-02-03T04:27:11.684Z,5.83
2018-02-03T04:29:40.013Z,5.90
2018-02-03T04:32:08.316Z,5.47
2018-02-03T04:34:36.693Z,6.10
2018-02-03T04:37:05.011Z,5.77
2018-02-03T04:39:34.076Z,4.95
2018-02-03T04:42:02.517Z,4.93
2018-02-03T04:44:30.831Z,4.70
2018-02-03T04:46:59.141Z,5.37
2018-02-03T04:49:28.251Z,4.63
2018-02-03T04:51:57.339Z,5.30
2018-02-03T04:54:25.680Z,5.90
2018-02-03T04:56:54.111Z,5.20
2018-02-03T04:59:22.421Z,5.60
2018-02-03T05:01:51.201Z,5.03
2018-02-03T05:04:19.571Z,5.10
2018-02-03T05:06:47.887Z,5.70
2018-02-03T05:09:16.203Z,5.43
2018-02-03T05:11:44.536Z,4.87
2018-02-03T05:14:13.661Z,5.70
2018-02-03T05:16:42.736Z,4.82
2018-02-03T05:19:11.079Z,5.40
2018-02-03T05:21:39.374Z,5.00
2018-02-03T05:24:07.675Z,6.00
2018-02-03T05:26:36.035Z,5.55
2018-02-03T05:29:04.347Z,5.70
2018-02-03T05:31:33.412Z,6.63
2018-02-03T05:34:01.744Z,6.07
2018-02-03T05:36:30.055Z,6.10
2018-02-03T05:38:58.896Z,4.97
2018-02-03T05:41:27.972Z,4.60
2018-02-03T05:43:56.279Z,6.00
2018-02-03T05:46:24.631Z,5.43
2018-02-03T05:48:52.943Z,5.10
2018-02-03T05:51:21.252Z,6.00
2018-02-03T05:53:49.899Z,4.87
2018-02-03T05:56:18.220Z,4.12
2018-02-03T05:58:46.527Z,4.47
2018-02-03T06:01:15.157Z,6.03
2018-02-03T06:03:43.459Z,6.50
2018-02-03T06:06:12.040Z,4.93
2018-02-03T06:08:40.559Z,5.03
2018-02-03T06:11:08.863Z,4.72
2018-02-03T06:13:37.171Z,6.05
2018-02-03T06:16:06.235Z,6.37
2018-02-03T06:18:34.549Z,5.87
2018-02-03T06:21:02.851Z,6.57
2018-02-03T06:23:32.007Z,6.22
2018-02-03T06:26:00.324Z,5.93
2018-02-03T06:28:28.628Z,5.40
2018-02-03T06:30:57.644Z,5.50
2018-02-03T06:33:25.956Z,6.05
2018-02-03T06:35:54.295Z,5.80
2018-02-03T06:38:22.647Z,6.10
2018-02-03T06:40:52.331Z,6.13
2018-02-03T06:43:20.652Z,5.73
2018-02-03T06:45:49.003Z,5.85
2018-02-03T06:48:17.312Z,6.90
2018-02-03T06:50:45.616Z,7.60
2018-02-03T06:53:14.448Z,8.67
2018-02-03T06:55:42.756Z,8.00
2018-02-03T06:58:11.082Z,9.88
2018-02-03T07:00:40.228Z,6.85
2018-02-03T07:03:08.539Z,6.32
2018-02-03T07:05:36.860Z,8.10
2018-02-03T07:08:05.208Z,5.87
2018-02-03T07:10:33.511Z,7.40
2018-02-03T07:13:03.111Z,8.25
2018-02-03T07:15:31.455Z,8.77
2018-02-03T07:17:59.770Z,7.53
2018-02-03T07:20:28.863Z,7.45
2018-02-03T07:22:58.220Z,6.47
2018-02-03T07:25:26.523Z,6.27
2018-02-03T07:27:54.845Z,5.05
2018-02-03T07:30:23.198Z,5.93
2018-02-03T07:32:52.288Z,5.23
2018-02-03T07:35:20.600Z,6.40
2018-02-03T07:37:48.947Z,7.10
2018-02-03T07:40:17.255Z,5.87
2018-02-03T07:42:45.559Z,5.93
2018-02-03T07:45:13.896Z,8.45
2018-02-03T07:47:42.989Z,6.23
2018-02-03T07:50:11.600Z,6.57
2018-02-03T07:52:40.479Z,5.80
2018-02-03T07:55:08.847Z,5.90
2018-02-03T07:57:37.936Z,5.50
2018-02-03T08:00:07.012Z,6.03
2018-02-03T08:02:35.443Z,6.00
2018-02-03T08:05:03.735Z,7.03
2018-02-03T08:07:32.036Z,6.13
2018-02-03T08:10:00.361Z,7.10
2018-02-03T08:12:29.213Z,6.70
2018-02-03T08:14:57.800Z,6.77
2018-02-03T08:17:26.099Z,6.40
2018-02-03T08:19:54.395Z,6.10
2018-02-03T08:22:22.751Z,6.87
2018-02-03T08:24:51.826Z,6.07
2018-02-03T08:27:20.172Z,6.57
2018-02-03T08:29:48.512Z,5.33
2018-02-03T08:32:16.856Z,6.00
2018-02-03T08:34:45.151Z,5.83
2018-02-03T08:37:14.267Z,6.20
2018-02-03T08:39:42.583Z,5.93
2018-02-03T08:42:10.887Z,6.03
2018-02-03T08:44:39.235Z,7.33
2018-02-03T08:47:08.078Z,6.63
2018-02-03T08:49:36.643Z,7.27
2018-02-03T08:52:05.031Z,5.50
2018-02-03T08:54:33.328Z,6.13
2018-02-03T08:57:01.635Z,7.40
2018-02-03T08:59:29.983Z,6.70
2018-02-03T09:01:58.283Z,5.90
2018-02-03T09:04:26.592Z,6.27
2018-02-03T09:06:55.012Z,5.30
2018-02-03T09:09:24.087Z,5.90
2018-02-03T09:12:05.167Z,5.53
2018-02-03T09:14:33.460Z,5.80
2018-02-03T09:17:01.764Z,6.13
2018-02-03T09:19:30.104Z,5.93
2018-02-03T09:21:59.167Z,7.33
2018-02-03T09:24:27.468Z,5.27
2018-02-03T09:26:55.916Z,6.03
2018-02-03T09:29:24.224Z,5.17
2018-02-03T09:31:52.519Z,6.53
2018-02-03T09:34:21.636Z,4.87
2018-02-03T09:36:50.026Z,5.47
2018-02-03T09:39:18.328Z,4.70
2018-02-03T09:41:46.651Z,5.93
2018-02-03T09:44:15.716Z,3.83
2018-02-03T09:46:44.020Z,4.70
2018-02-03T09:49:13.403Z,4.70
2018-02-03T09:51:41.705Z,5.57
2018-02-03T09:54:10.010Z,4.60
2018-02-03T09:56:38.663Z,4.10
2018-02-03T09:59:06.999Z,5.83
2018-02-03T10:01:35.317Z,6.00
2018-02-03T10:04:04.512Z,4.63
2018-02-03T10:06:32.811Z,4.40
2018-02-03T10:09:01.110Z,5.07
2018-02-03T10:11:29.474Z,5.07
2018-02-03T10:13:58.507Z,5.10
2018-02-03T10:16:26.803Z,5.27
2018-02-03T10:18:55.437Z,5.17
2018-02-03T10:21:23.736Z,5.00
2018-02-03T10:23:52.031Z,6.00
2018-02-03T10:26:21.003Z,5.10
2018-02-03T10:28:49.311Z,5.03
2018-02-03T10:31:17.612Z,5.37
2018-02-03T10:33:46.274Z,4.87
2018-02-03T10:36:14.575Z,4.57
2018-02-03T10:38:42.893Z,4.90
2018-02-03T10:41:11.234Z,5.33
2018-02-03T10:43:39.528Z,4.97
2018-02-03T10:46:07.833Z,5.53
2018-02-03T10:48:36.163Z,6.00
2018-02-03T10:51:04.880Z,5.80
2018-02-03T10:53:33.243Z,5.30
2018-02-03T10:56:01.547Z,5.10
2018-02-03T10:58:29.928Z,5.90
2018-02-03T11:01:03.675Z,5.40
2018-02-03T11:03:32.256Z,5.90
2018-02-03T11:06:01.247Z,5.83
2018-02-03T11:08:30.259Z,6.30
2018-02-03T11:10:58.555Z,5.43
2018-02-03T11:13:26.880Z,5.63
2018-02-03T11:15:55.008Z,5.60
2018-02-03T11:18:23.356Z,5.47
2018-02-03T11:20:51.940Z,5.70
2018-02-03T11:23:20.292Z,6.70
2018-02-03T11:25:48.634Z,5.47
2018-02-03T11:28:16.926Z,6.40
2018-02-03T11:30:45.462Z,7.30
2018-02-03T11:33:13.792Z,6.57
2018-02-03T11:35:42.099Z,6.20
2018-02-03T11:38:10.735Z,4.80
2018-02-03T11:40:39.670Z,6.23
2018-02-03T11:43:07.974Z,6.77
2018-02-03T11:45:36.939Z,5.60
2018-02-03T11:48:05.245Z,6.70
2018-02-03T11:50:33.547Z,6.30
2018-02-03T11:53:01.871Z,5.77
2018-02-03T11:55:30.172Z,4.67
2018-02-03T11:57:58.469Z,4.50
2018-02-03T12:00:27.187Z,5.60
2018-02-03T12:02:55.500Z,3.17
2018-02-03T12:05:23.824Z,6.33
2018-02-03T12:07:52.185Z,4.27
2018-02-03T12:10:20.547Z,4.43
2018-02-03T12:12:48.928Z,3.93
2018-02-03T12:15:17.284Z,3.57
2018-02-03T12:17:45.352Z,4.30
2018-02-03T12:20:13.658Z,5.33
2018-02-03T12:22:42.392Z,6.60
2018-02-03T12:25:10.835Z,3.30
2018-02-03T12:27:39.146Z,3.47
2018-02-03T12:30:07.746Z,4.70
2018-02-03T12:32:36.480Z,4.07
2018-02-03T12:35:04.845Z,3.83
2018-02-03T12:37:34.323Z,4.10
2018-02-03T12:40:02.635Z,3.27
2018-02-03T12:42:31.387Z,3.80
2018-02-03T12:44:59.734Z,4.00
2018-02-03T12:47:28.031Z,4.17
2018-02-03T12:49:56.343Z,3.30
2018-02-03T12:52:24.683Z,4.37
2018-02-03T12:54:53.000Z,3.60
2018-02-03T12:57:21.956Z,3.30
2018-02-03T12:59:50.296Z,3.10
2018-02-03T13:02:18.606Z,3.80
2018-02-03T13:04:46.927Z,3.17
2018-02-03T13:07:15.304Z,4.60
2018-02-03T13:09:44.385Z,4.70
2018-02-03T13:12:14.083Z,5.73
2018-02-03T13:14:42.434Z,5.80
2018-02-03T13:17:11.000Z,4.50
2018-02-03T13:19:39.730Z,4.77
2018-02-03T13:22:08.088Z,4.63
2018-02-03T13:24:36.496Z,4.83
2018-02-03T13:27:04.797Z,6.20
2018-02-03T13:29:34.467Z,4.70
2018-02-03T13:32:02.780Z,5.40
2018-02-03T13:34:31.368Z,5.90
2018-02-03T13:37:00.223Z,5.27
2018-02-03T13:39:29.371Z,5.33
2018-02-03T13:41:57.682Z,5.73
2018-02-03T13:44:26.019Z,4.80
2018-02-03T13:46:54.319Z,4.90
2018-02-03T13:49:22.615Z,5.50
2018-02-03T13:51:50.975Z,5.03
2018-02-03T13:54:19.968Z,6.83
2018-02-03T13:56:48.455Z,4.90
2018-02-03T13:59:17.088Z,5.20
2018-02-03T14:01:45.985Z,5.63
2018-02-03T14:04:15.071Z,6.07
2018-02-03T14:06:44.655Z,6.30
2018-02-03T14:09:13.587Z,5.77
2018-02-03T14:11:41.959Z,6.87
2018-02-03T14:14:10.255Z,6.23
2018-02-03T14:16:38.788Z,5.90
2018-02-03T14:19:07.143Z,5.97
2018-02-03T14:21:35.435Z,6.23
2018-02-03T14:24:09.178Z,6.10
2018-02-03T14:26:37.479Z,6.20
2018-02-03T14:29:05.780Z,4.70
2018-02-03T14:31:34.310Z,5.20
2018-02-03T14:34:02.607Z,4.63
2018-02-03T14:36:30.915Z,5.60
2018-02-03T14:38:59.335Z,5.87
2018-02-03T14:41:27.653Z,7.33
2018-02-03T14:43:55.955Z,5.93
2018-02-03T14:46:24.336Z,6.20
2018-02-03T14:48:52.607Z,6.67
2018-02-03T14:51:21.291Z,6.50
2018-02-03T14:53:50.000Z,6.97
2018-02-03T14:56:18.299Z,7.70
2018-02-03T14:58:46.652Z,7.50
2018-02-03T15:01:14.957Z,8.20
2018-02-03T15:03:43.260Z,8.20
2018-02-03T15:06:11.611Z,7.70
2018-02-03T15:08:40.683Z,7.90
2018-02-03T15:11:08.985Z,7.13
2018-02-03T15:13:38.100Z,8.00
2018-02-03T15:16:06.411Z,7.87
2018-02-03T15:18:34.723Z,7.20
2018-02-03T15:21:03.319Z,8.03
2018-02-03T15:23:32.403Z,8.00
2018-02-03T15:26:00.712Z,6.83
2018-02-03T15:28:29.141Z,8.43
2018-02-03T15:30:57.439Z,6.80
2018-02-03T15:33:25.735Z,6.80
2018-02-03T15:35:54.943Z,7.90
2018-02-03T15:38:23.243Z,6.33
2018-02-03T15:40:51.536Z,5.33
2018-02-03T15:43:20.119Z,5.00
2018-02-03T15:45:48.419Z,3.80
2018-02-03T15:48:17.012Z,3.07
2018-02-03T15:50:45.339Z,2.43
2018-02-03T15:53:13.640Z,3.00
2018-02-03T15:55:41.940Z,3.40
2018-02-03T15:58:10.303Z,3.03
2018-02-03T16:00:38.624Z,3.80
2018-02-03T16:03:07.691Z,3.50
2018-02-03T16:05:36.071Z,3.37
2018-02-03T16:08:04.351Z,3.70
2018-02-03T16:10:32.655Z,3.10
2018-02-03T16:13:01.248Z,3.73
2018-02-03T16:15:29.617Z,3.77
2018-02-03T16:17:57.927Z,4.20
2018-02-03T16:20:26.263Z,5.67
2018-02-03T16:22:55.323Z,6.40
2018-02-03T16:25:23.627Z,10.40
2018-02-03T16:27:52.243Z,7.80
2018-02-03T16:30:20.561Z,7.13
2018-02-03T16:32:48.872Z,9.43
2018-02-03T16:35:18.393Z,9.40
2018-02-03T16:37:46.692Z,7.43
2018-02-03T16:40:15.027Z,8.17
2018-02-03T16:42:43.351Z,7.20
2018-02-03T16:45:11.655Z,10.53
2018-02-03T16:47:40.008Z,7.60
2018-02-03T16:50:08.308Z,13.77
2018-02-03T16:52:36.647Z,9.82
2018-02-03T16:55:05.268Z,7.85
2018-02-03T16:57:33.575Z,6.97
2018-02-03T17:00:01.894Z,5.47
2018-02-03T17:02:30.592Z,7.00
2018-02-03T17:04:58.903Z,7.27
2018-02-03T17:07:27.211Z,7.50
2018-02-03T17:09:55.899Z,5.60
2018-02-03T17:12:24.199Z,6.43
2018-02-03T17:14:52.540Z,7.70
2018-02-03T17:17:21.139Z,6.97
2018-02-03T17:19:49.530Z,6.63
2018-02-03T17:22:17.852Z,8.17
2018-02-03T17:24:46.195Z,7.00
2018-02-03T17:27:14.515Z,7.45
2018-02-03T17:29:42.824Z,7.00
2018-02-03T17:32:11.176Z,7.13
2018-02-03T17:34:39.479Z,7.43
2018-02-03T17:37:13.416Z,8.20
2018-02-03T17:39:41.728Z,7.30
2018-02-03T17:42:10.031Z,7.78
2018-02-03T17:44:39.387Z,7.75
2018-02-03T17:47:07.755Z,6.93
2018-02-03T17:49:36.104Z,7.35
2018-02-03T17:52:04.464Z,7.35
2018-02-03T17:54:32.949Z,6.10
2018-02-03T17:57:07.071Z,7.80
2018-02-03T17:59:35.391Z,7.00
2018-02-03T18:02:03.708Z,6.18
2018-02-03T18:04:32.248Z,8.25
2018-02-03T18:07:05.348Z,7.80
2018-02-03T18:09:33.751Z,7.15
2018-02-03T18:12:02.385Z,11.00
2018-02-03T18:14:30.697Z,7.40
2018-02-03T18:16:59.048Z,6.57
2018-02-03T18:19:27.399Z,6.70
2018-02-03T18:21:55.702Z,5.93
2018-02-03T18:24:24.055Z,7.47
2018-02-03T18:26:52.363Z,7.73
2018-02-03T18:29:20.680Z,8.87
2018-02-03T18:31:49.039Z,7.80
2018-02-03T18:34:17.343Z,8.90
2018-02-03T18:36:46.413Z,7.03
2018-02-03T18:39:14.896Z,11.43
2018-02-03T18:41:43.205Z,8.57
2018-02-03T18:44:12.275Z,12.77
2018-02-03T18:46:40.619Z,11.17
2018-02-03T18:49:08.980Z,7.77
2018-02-03T18:51:37.289Z,11.70
2018-02-03T18:54:05.851Z,7.83
2018-02-03T18:56:34.155Z,12.70
2018-02-03T18:59:03.075Z,11.57
2018-02-03T19:01:31.957Z,13.23
2018-02-03T19:04:00.287Z,8.53
2018-02-03T19:06:28.600Z,12.10
2018-02-03T19:08:56.964Z,6.70
2018-02-03T19:11:25.276Z,6.30
2018-02-03T19:13:53.587Z,7.03
2018-02-03T19:16:21.942Z,6.90
2018-02-03T19:18:51.007Z,6.97
2018-02-03T19:21:19.316Z,9.87
2018-02-03T19:23:48.440Z,8.13
2018-02-03T19:26:16.735Z,6.17
2018-02-03T19:28:45.085Z,7.20
2018-02-03T19:31:13.883Z,8.10
2018-02-03T19:33:42.233Z,10.30
2018-02-03T19:36:10.588Z,9.50
2018-02-03T19:38:38.946Z,9.00
2018-02-03T19:41:07.251Z,9.23
2018-02-03T19:43:35.556Z,9.47
2018-02-03T19:46:03.963Z,9.40
2018-02-03T19:48:32.267Z,9.77
2018-02-03T19:51:00.617Z,10.00
2018-02-03T19:53:29.005Z,11.10
2018-02-03T19:55:57.303Z,8.70
2018-02-03T19:58:25.603Z,8.80
2018-02-03T20:00:54.002Z,10.40
2018-02-03T20:03:22.383Z,9.90
2018-02-03T20:05:50.447Z,11.97
2018-02-03T20:08:18.816Z,10.97
2018-02-03T20:10:47.983Z,10.60
2018-02-03T20:13:16.283Z,11.03
2018-02-03T20:15:44.699Z,11.10
2018-02-03T20:18:13.016Z,11.20
2018-02-03T20:20:41.320Z,11.10
2018-02-03T20:23:09.674Z,12.23
2018-02-03T20:25:38.028Z,10.33
2018-02-03T20:28:06.382Z,10.83
2018-02-03T20:30:34.768Z,12.20
2018-02-03T20:33:03.075Z,12.32
2018-02-03T20:35:31.389Z,12.57
2018-02-03T20:38:00.037Z,11.57
2018-02-03T20:40:28.349Z,10.20
2018-02-03T20:42:56.680Z,13.90
2018-02-03T20:45:25.122Z,12.90
2018-02-03T20:47:53.485Z,8.97
2018-02-03T20:50:21.862Z,11.47
2018-02-03T20:52:50.139Z,12.80
2018-02-03T20:55:18.456Z,12.27
2018-02-03T20:57:46.770Z,14.03
2018-02-03T21:00:15.126Z,14.10
2018-02-03T21:02:43.440Z,14.00
2018-02-03T21:05:11.743Z,12.80
2018-02-03T21:07:40.116Z,13.07
2018-02-03T21:10:09.249Z,12.50
2018-02-03T21:12:37.602Z,11.93
2018-02-03T21:15:06.270Z,12.43
2018-02-03T21:17:34.576Z,12.90
2018-02-03T21:20:02.940Z,12.50
2018-02-03T21:22:31.292Z,12.90
2018-02-03T21:24:59.650Z,12.57
2018-02-03T21:27:27.952Z,12.30
2018-02-03T21:29:56.308Z,13.60
2018-02-03T21:32:24.617Z,14.60
2018-02-03T21:34:52.969Z,11.63
2018-02-03T21:37:21.307Z,12.87
2018-02-03T21:39:49.607Z,13.73
2018-02-03T21:42:17.943Z,13.30
2018-02-03T21:44:46.300Z,13.07
2018-02-03T21:47:15.382Z,14.27
2018-02-03T21:49:43.776Z,14.27
2018-02-03T21:52:12.731Z,12.07
2018-02-03T21:54:40.795Z,12.10
2018-02-03T21:57:09.232Z,14.60
2018-02-03T21:59:38.424Z,12.83
2018-02-03T22:02:06.857Z,15.33
2018-02-03T22:04:35.163Z,15.40
2018-02-03T22:07:04.559Z,13.93
2018-02-03T22:09:32.940Z,13.00
2018-02-03T22:12:01.261Z,13.17
2018-02-03T22:14:29.610Z,14.97
2018-02-03T22:16:58.304Z,14.47
2018-02-03T22:19:26.840Z,15.43
2018-02-03T22:21:55.468Z,16.17
2018-02-03T22:24:23.775Z,13.25
2018-02-03T22:26:52.231Z,13.57
2018-02-03T22:29:20.864Z,11.93
2018-02-03T22:31:49.184Z,13.80
2018-02-03T22:34:17.518Z,12.60
2018-02-03T22:36:45.983Z,12.73
2018-02-03T22:39:14.442Z,12.30
2018-02-03T22:41:42.750Z,14.23
2018-02-03T22:44:11.451Z,13.20
2018-02-03T22:46:39.763Z,12.45
2018-02-03T22:49:08.071Z,13.40
2018-02-03T22:51:36.756Z,12.27
2018-02-03T22:54:05.203Z,12.85
2018-02-03T22:56:33.783Z,12.80
2018-02-03T22:59:02.380Z,13.23
2018-02-03T23:01:30.691Z,13.33
2018-02-03T23:03:58.995Z,13.80
2018-02-03T23:06:28.588Z,14.33
2018-02-03T23:08:56.901Z,13.47
2018-02-03T23:11:25.317Z,17.30
2018-02-03T23:13:53.679Z,17.10
2018-02-03T23:16:22.763Z,15.32
2018-02-03T23:18:51.068Z,13.00
2018-02-03T23:21:19.695Z,13.30
2018-02-03T23:23:47.995Z,14.87
2018-02-03T23:26:16.304Z,15.02
2018-02-03T23:28:45.436Z,12.43
2018-02-03T23:31:13.800Z,13.17
2018-02-03T23:33:42.358Z,14.07
2018-02-03T23:36:10.851Z,12.48
2018-02-03T23:38:39.164Z,12.10
2018-02-03T23:41:07.471Z,10.97
2018-02-03T23:43:35.700Z,11.73
2018-02-03T23:46:04.011Z,10.73
2018-02-03T23:48:32.184Z,10.57
2018-02-03T23:51:00.939Z,12.73
2018-02-03T23:53:29.255Z,12.20
2018-02-03T23:55:57.567Z,14.13
2018-02-03T23:58:26.049Z,12.07
